sensor_id;sensor_type;location;lat;lon;timestamp;pressure;altitude;pressure_sealevel;temperature;humidity
28935;BME280;16044;52.726;-2.108;2023-08-06T00:01:16;100463.94;;;10.51;100.00
28935;BME280;16044;52.726;-2.108;2023-08-06T00:03:48;100467.19;;;10.47;100.00
28935;BME280;16044;52.726;-2.108;2023-08-06T00:06:18;100475.69;;;10.44;100.00
28935;BME280;16044;52.726;-2.108;2023-08-06T00:08:49;100471.97;;;10.37;100.00
28935;BME280;16044;52.726;-2.108;2023-08-06T00:11:22;100472.97;;;10.36;100.00
28935;BME280;16044;52.726;-2.108;2023-08-06T00:13:52;100475.41;;;10.30;100.00
28935;BME280;16044;52.726;-2.108;2023-08-06T00:16:23;100474.00;;;10.26;100.00
28935;BME280;16044;52.726;-2.108;2023-08-06T00:18:53;100479.13;;;10.21;100.00
28935;BME280;16044;52.726;-2.108;2023-08-06T00:21:23;100483.88;;;10.19;100.00
28935;BME280;16044;52.726;-2.108;2023-08-06T00:23:54;100487.91;;;10.15;100.00
28935;BME280;16044;52.726;-2.108;2023-08-06T00:26:27;100486.41;;;10.12;100.00
28935;BME280;16044;52.726;-2.108;2023-08-06T00:28:57;100485.91;;;10.09;100.00
28935;BME280;16044;52.726;-2.108;2023-08-06T00:31:27;100491.50;;;10.07;100.00
28935;BME280;16044;52.726;-2.108;2023-08-06T00:33:58;100492.88;;;10.03;100.00
28935;BME280;16044;52.726;-2.108;2023-08-06T00:36:28;100492.38;;;10.00;100.00
28935;BME280;16044;52.726;-2.108;2023-08-06T00:38:58;100500.69;;;9.98;100.00
28935;BME280;16044;52.726;-2.108;2023-08-06T00:41:31;100498.47;;;9.93;100.00
28935;BME280;16044;52.726;-2.108;2023-08-06T00:44:02;100502.72;;;9.88;100.00
28935;BME280;16044;52.726;-2.108;2023-08-06T00:46:33;100511.16;;;9.85;100.00
28935;BME280;16044;52.726;-2.108;2023-08-06T00:49:04;100513.41;;;9.81;100.00
28935;BME280;16044;52.726;-2.108;2023-08-06T00:51:35;100513.91;;;9.76;100.00
28935;BME280;16044;52.726;-2.108;2023-08-06T00:54:06;100526.59;;;9.76;100.00
28935;BME280;16044;52.726;-2.108;2023-08-06T00:56:39;100530.66;;;9.72;100.00
28935;BME280;16044;52.726;-2.108;2023-08-06T00:59:10;100526.94;;;9.73;100.00
28935;BME280;16044;52.726;-2.108;2023-08-06T01:01:41;100525.59;;;9.69;100.00
28935;BME280;16044;52.726;-2.108;2023-08-06T01:04:12;100528.44;;;9.67;100.00
28935;BME280;16044;52.726;-2.108;2023-08-06T01:06:46;100521.53;;;9.65;100.00
28935;BME280;16044;52.726;-2.108;2023-08-06T01:09:27;100532.69;;;9.62;100.00
28935;BME280;16044;52.726;-2.108;2023-08-06T01:12:18;100536.75;;;9.57;100.00
28935;BME280;16044;52.726;-2.108;2023-08-06T01:14:59;100535.06;;;9.56;100.00
28935;BME280;16044;52.726;-2.108;2023-08-06T01:17:33;100535.06;;;9.56;100.00
28935;BME280;16044;52.726;-2.108;2023-08-06T01:20:05;100541.50;;;9.55;100.00
28935;BME280;16044;52.726;-2.108;2023-08-06T01:22:38;100534.72;;;9.51;100.00
28935;BME280;16044;52.726;-2.108;2023-08-06T01:25:09;100543.69;;;9.52;100.00
28935;BME280;16044;52.726;-2.108;2023-08-06T01:27:45;100536.91;;;9.48;100.00
28935;BME280;16044;52.726;-2.108;2023-08-06T01:30:22;100537.09;;;9.46;100.00
28935;BME280;16044;52.726;-2.108;2023-08-06T01:32:58;100537.59;;;9.42;100.00
28935;BME280;16044;52.726;-2.108;2023-08-06T01:35:31;100547.75;;;9.40;100.00
28935;BME280;16044;52.726;-2.108;2023-08-06T01:38:05;100553.66;;;9.35;100.00
28935;BME280;16044;52.726;-2.108;2023-08-06T01:40:35;100546.19;;;9.37;100.00
28935;BME280;16044;52.726;-2.108;2023-08-06T01:43:05;100551.63;;;9.37;100.00
28935;BME280;16044;52.726;-2.108;2023-08-06T01:45:36;100552.97;;;9.41;100.00
28935;BME280;16044;52.726;-2.108;2023-08-06T01:48:06;100550.94;;;9.43;100.00
28935;BME280;16044;52.726;-2.108;2023-08-06T01:50:36;100552.63;;;9.44;100.00
28935;BME280;16044;52.726;-2.108;2023-08-06T01:53:09;100556.69;;;9.48;100.00
28935;BME280;16044;52.726;-2.108;2023-08-06T01:55:40;100555.69;;;9.49;100.00
28935;BME280;16044;52.726;-2.108;2023-08-06T01:58:10;100558.56;;;9.48;100.00
28935;BME280;16044;52.726;-2.108;2023-08-06T02:00:40;100563.97;;;9.48;100.00
28935;BME280;16044;52.726;-2.108;2023-08-06T02:03:11;100562.28;;;9.47;100.00
28935;BME280;16044;52.726;-2.108;2023-08-06T02:05:41;100566.16;;;9.44;100.00
28935;BME280;16044;52.726;-2.108;2023-08-06T02:08:15;100560.91;;;9.43;100.00
28935;BME280;16044;52.726;-2.108;2023-08-06T02:10:46;100562.47;;;9.45;100.00
28935;BME280;16044;52.726;-2.108;2023-08-06T02:13:16;100565.16;;;9.45;100.00
28935;BME280;16044;52.726;-2.108;2023-08-06T02:15:47;100563.13;;;9.47;100.00
28935;BME280;16044;52.726;-2.108;2023-08-06T02:18:17;100558.41;;;9.49;100.00
28935;BME280;16044;52.726;-2.108;2023-08-06T02:20:55;100561.78;;;9.51;100.00
28935;BME280;16044;52.726;-2.108;2023-08-06T02:23:29;100563.28;;;9.54;100.00
28935;BME280;16044;52.726;-2.108;2023-08-06T02:26:00;100565.84;;;9.55;100.00
28935;BME280;16044;52.726;-2.108;2023-08-06T02:28:31;100568.88;;;9.52;100.00
28935;BME280;16044;52.726;-2.108;2023-08-06T02:31:02;100559.91;;;9.52;100.00
28935;BME280;16044;52.726;-2.108;2023-08-06T02:33:33;100556.38;;;9.51;100.00
28935;BME280;16044;52.726;-2.108;2023-08-06T02:36:04;100569.91;;;9.51;100.00
28935;BME280;16044;52.726;-2.108;2023-08-06T02:38:37;100553.66;;;9.51;100.00
28935;BME280;16044;52.726;-2.108;2023-08-06T02:41:07;100565.16;;;9.53;100.00
28935;BME280;16044;52.726;-2.108;2023-08-06T02:43:38;100559.44;;;9.56;100.00
28935;BME280;16044;52.726;-2.108;2023-08-06T02:46:08;100562.44;;;9.62;100.00
28935;BME280;16044;52.726;-2.108;2023-08-06T02:48:38;100572.78;;;9.66;100.00
28935;BME280;16044;52.726;-2.108;2023-08-06T02:51:09;100563.47;;;9.69;100.00
28935;BME280;16044;52.726;-2.108;2023-08-06T02:53:42;100561.81;;;9.68;100.00
28935;BME280;16044;52.726;-2.108;2023-08-06T02:56:12;100557.56;;;9.65;100.00
28935;BME280;16044;52.726;-2.108;2023-08-06T02:58:42;100557.91;;;9.62;100.00
28935;BME280;16044;52.726;-2.108;2023-08-06T03:01:13;100557.41;;;9.59;100.00
28935;BME280;16044;52.726;-2.108;2023-08-06T03:03:43;100554.03;;;9.56;100.00
28935;BME280;16044;52.726;-2.108;2023-08-06T03:06:14;100565.84;;;9.55;100.00
28935;BME280;16044;52.726;-2.108;2023-08-06T03:08:47;100562.28;;;9.55;100.00
28935;BME280;16044;52.726;-2.108;2023-08-06T03:11:17;100562.13;;;9.56;100.00
28935;BME280;16044;52.726;-2.108;2023-08-06T03:13:47;100558.41;;;9.57;100.00
28935;BME280;16044;52.726;-2.108;2023-08-06T03:16:18;100555.03;;;9.55;100.00
28935;BME280;16044;52.726;-2.108;2023-08-06T03:18:48;100556.38;;;9.60;100.00
28935;BME280;16044;52.726;-2.108;2023-08-06T03:21:18;100558.06;;;9.61;100.00
28935;BME280;16044;52.726;-2.108;2023-08-06T03:23:51;100553.34;;;9.63;100.00
28935;BME280;16044;52.726;-2.108;2023-08-06T03:26:22;100559.09;;;9.68;100.00
28935;BME280;16044;52.726;-2.108;2023-08-06T03:28:52;100558.72;;;9.79;100.00
28935;BME280;16044;52.726;-2.108;2023-08-06T03:31:22;100553.31;;;9.87;100.00
28935;BME280;16044;52.726;-2.108;2023-08-06T03:33:53;100552.31;;;9.97;100.00
28935;BME280;16044;52.726;-2.108;2023-08-06T03:36:23;100548.38;;;10.07;100.00
28935;BME280;16044;52.726;-2.108;2023-08-06T03:38:56;100553.25;;;10.20;100.00
28935;BME280;16044;52.726;-2.108;2023-08-06T03:41:26;100548.19;;;10.25;100.00
28935;BME280;16044;52.726;-2.108;2023-08-06T03:43:56;100549.50;;;10.38;100.00
28935;BME280;16044;52.726;-2.108;2023-08-06T03:46:29;100555.28;;;10.43;100.00
28935;BME280;16044;52.726;-2.108;2023-08-06T03:49:01;100547.47;;;10.48;100.00
28935;BME280;16044;52.726;-2.108;2023-08-06T03:51:31;100546.91;;;10.61;100.00
28935;BME280;16044;52.726;-2.108;2023-08-06T03:54:04;100544.38;;;10.59;100.00
28935;BME280;16044;52.726;-2.108;2023-08-06T03:56:34;100540.97;;;10.65;100.00
28935;BME280;16044;52.726;-2.108;2023-08-06T03:59:04;100539.41;;;10.71;100.00
28935;BME280;16044;52.726;-2.108;2023-08-06T04:01:35;100540.25;;;10.71;100.00
28935;BME280;16044;52.726;-2.108;2023-08-06T04:04:05;100544.13;;;10.77;100.00
28935;BME280;16044;52.726;-2.108;2023-08-06T04:06:35;100543.28;;;10.77;100.00
28935;BME280;16044;52.726;-2.108;2023-08-06T04:09:08;100548.03;;;10.75;100.00
28935;BME280;16044;52.726;-2.108;2023-08-06T04:11:39;100545.31;;;10.75;100.00
28935;BME280;16044;52.726;-2.108;2023-08-06T04:14:09;100553.63;;;10.73;100.00
28935;BME280;16044;52.726;-2.108;2023-08-06T04:16:39;100554.84;;;10.70;100.00
28935;BME280;16044;52.726;-2.108;2023-08-06T04:19:10;100562.97;;;10.70;100.00
28935;BME280;16044;52.726;-2.108;2023-08-06T04:21:40;100566.03;;;10.67;100.00
28935;BME280;16044;52.726;-2.108;2023-08-06T04:24:13;100565.00;;;10.68;100.00
28935;BME280;16044;52.726;-2.108;2023-08-06T04:26:44;100569.41;;;10.69;100.00
28935;BME280;16044;52.726;-2.108;2023-08-06T04:29:15;100570.59;;;10.67;100.00
28935;BME280;16044;52.726;-2.108;2023-08-06T04:31:45;100569.94;;;10.65;100.00
28935;BME280;16044;52.726;-2.108;2023-08-06T04:34:15;100575.53;;;10.63;100.00
28935;BME280;16044;52.726;-2.108;2023-08-06T04:36:45;100580.63;;;10.66;100.00
28935;BME280;16044;52.726;-2.108;2023-08-06T04:39:18;100579.75;;;10.66;100.00
28935;BME280;16044;52.726;-2.108;2023-08-06T04:41:49;100579.22;;;10.70;100.00
28935;BME280;16044;52.726;-2.108;2023-08-06T04:44:20;100583.63;;;10.71;100.00
28935;BME280;16044;52.726;-2.108;2023-08-06T04:46:51;100587.38;;;10.70;100.00
28935;BME280;16044;52.726;-2.108;2023-08-06T04:49:21;100586.53;;;10.70;100.00
28935;BME280;16044;52.726;-2.108;2023-08-06T04:51:52;100599.06;;;10.71;100.00
28935;BME280;16044;52.726;-2.108;2023-08-06T04:54:25;100596.84;;;10.75;100.00
28935;BME280;16044;52.726;-2.108;2023-08-06T04:56:55;100594.47;;;10.71;100.00
28935;BME280;16044;52.726;-2.108;2023-08-06T04:59:25;100602.09;;;10.76;100.00
28935;BME280;16044;52.726;-2.108;2023-08-06T05:01:56;100608.34;;;10.77;100.00
28935;BME280;16044;52.726;-2.108;2023-08-06T05:04:26;100599.38;;;10.76;100.00
28935;BME280;16044;52.726;-2.108;2023-08-06T05:06:57;100612.44;;;10.72;100.00
28935;BME280;16044;52.726;-2.108;2023-08-06T05:09:30;100608.00;;;10.80;100.00
28935;BME280;16044;52.726;-2.108;2023-08-06T05:12:00;100610.06;;;10.78;100.00
28935;BME280;16044;52.726;-2.108;2023-08-06T05:14:31;100620.19;;;10.84;100.00
28935;BME280;16044;52.726;-2.108;2023-08-06T05:17:02;100607.47;;;10.84;100.00
28935;BME280;16044;52.726;-2.108;2023-08-06T05:19:32;100611.88;;;10.85;100.00
28935;BME280;16044;52.726;-2.108;2023-08-06T05:22:03;100618.16;;;10.86;100.00
28935;BME280;16044;52.726;-2.108;2023-08-06T05:24:36;100624.06;;;10.89;100.00
28935;BME280;16044;52.726;-2.108;2023-08-06T05:27:07;100622.53;;;10.95;100.00
28935;BME280;16044;52.726;-2.108;2023-08-06T05:29:37;100628.78;;;10.96;100.00
28935;BME280;16044;52.726;-2.108;2023-08-06T05:32:07;100635.25;;;10.95;100.00
28935;BME280;16044;52.726;-2.108;2023-08-06T05:34:38;100630.81;;;10.93;100.00
28935;BME280;16044;52.726;-2.108;2023-08-06T05:37:08;100629.81;;;10.95;100.00
28935;BME280;16044;52.726;-2.108;2023-08-06T05:39:41;100636.41;;;11.00;100.00
28935;BME280;16044;52.726;-2.108;2023-08-06T05:42:12;100632.66;;;11.01;100.00
28935;BME280;16044;52.726;-2.108;2023-08-06T05:44:42;100637.19;;;11.09;100.00
28935;BME280;16044;52.726;-2.108;2023-08-06T05:47:13;100639.19;;;11.15;100.00
28935;BME280;16044;52.726;-2.108;2023-08-06T05:49:43;100643.44;;;11.18;100.00
28935;BME280;16044;52.726;-2.108;2023-08-06T05:52:13;100645.13;;;11.19;100.00
28935;BME280;16044;52.726;-2.108;2023-08-06T05:54:46;100647.84;;;11.19;100.00
28935;BME280;16044;52.726;-2.108;2023-08-06T05:57:16;100651.22;;;11.21;100.00
28935;BME280;16044;52.726;-2.108;2023-08-06T05:59:47;100650.19;;;11.22;100.00
28935;BME280;16044;52.726;-2.108;2023-08-06T06:02:17;100654.63;;;11.23;100.00
28935;BME280;16044;52.726;-2.108;2023-08-06T06:04:48;100652.56;;;11.25;100.00
28935;BME280;16044;52.726;-2.108;2023-08-06T06:07:18;100651.38;;;11.27;100.00
28935;BME280;16044;52.726;-2.108;2023-08-06T06:09:51;100655.63;;;11.22;100.00
28935;BME280;16044;52.726;-2.108;2023-08-06T06:12:21;100651.03;;;11.22;100.00
28935;BME280;16044;52.726;-2.108;2023-08-06T06:14:53;100657.69;;;11.20;100.00
28935;BME280;16044;52.726;-2.108;2023-08-06T06:17:23;100666.31;;;11.23;100.00
28935;BME280;16044;52.726;-2.108;2023-08-06T06:19:53;100656.13;;;11.25;100.00
28935;BME280;16044;52.726;-2.108;2023-08-06T06:22:24;100657.13;;;11.32;100.00
28935;BME280;16044;52.726;-2.108;2023-08-06T06:24:56;100662.50;;;11.41;100.00
28935;BME280;16044;52.726;-2.108;2023-08-06T06:27:27;100662.75;;;11.54;100.00
28935;BME280;16044;52.726;-2.108;2023-08-06T06:29:57;100678.28;;;11.68;100.00
28935;BME280;16044;52.726;-2.108;2023-08-06T06:32:27;100679.06;;;11.77;100.00
28935;BME280;16044;52.726;-2.108;2023-08-06T06:34:58;100664.09;;;11.89;100.00
28935;BME280;16044;52.726;-2.108;2023-08-06T06:37:28;100668.97;;;12.32;100.00
28935;BME280;16044;52.726;-2.108;2023-08-06T06:40:01;100668.41;;;12.75;100.00
28935;BME280;16044;52.726;-2.108;2023-08-06T06:42:31;100669.44;;;13.18;100.00
28935;BME280;16044;52.726;-2.108;2023-08-06T06:45:02;100671.38;;;13.54;100.00
28935;BME280;16044;52.726;-2.108;2023-08-06T06:47:32;100676.63;;;13.77;100.00
28935;BME280;16044;52.726;-2.108;2023-08-06T06:50:04;100679.00;;;13.80;100.00
28935;BME280;16044;52.726;-2.108;2023-08-06T06:52:35;100684.56;;;13.94;100.00
28935;BME280;16044;52.726;-2.108;2023-08-06T06:55:08;100690.44;;;14.12;100.00
28935;BME280;16044;52.726;-2.108;2023-08-06T06:57:39;100683.41;;;14.24;100.00
28935;BME280;16044;52.726;-2.108;2023-08-06T07:00:10;100690.75;;;14.24;100.00
28935;BME280;16044;52.726;-2.108;2023-08-06T07:02:41;100694.31;;;14.24;100.00
28935;BME280;16044;52.726;-2.108;2023-08-06T07:05:11;100705.34;;;14.16;100.00
28935;BME280;16044;52.726;-2.108;2023-08-06T07:07:41;100702.34;;;14.11;100.00
28935;BME280;16044;52.726;-2.108;2023-08-06T07:10:14;100700.16;;;14.00;100.00
28935;BME280;16044;52.726;-2.108;2023-08-06T07:12:45;100704.69;;;13.93;100.00
28935;BME280;16044;52.726;-2.108;2023-08-06T07:15:15;100707.53;;;13.84;100.00
28935;BME280;16044;52.726;-2.108;2023-08-06T07:17:46;100703.69;;;13.79;100.00
28935;BME280;16044;52.726;-2.108;2023-08-06T07:20:17;100707.28;;;13.64;100.00
28935;BME280;16044;52.726;-2.108;2023-08-06T07:22:47;100711.34;;;13.69;100.00
28935;BME280;16044;52.726;-2.108;2023-08-06T07:25:20;100703.47;;;13.59;100.00
28935;BME280;16044;52.726;-2.108;2023-08-06T07:27:50;100701.13;;;13.56;100.00
28935;BME280;16044;52.726;-2.108;2023-08-06T07:30:21;100706.81;;;13.61;100.00
28935;BME280;16044;52.726;-2.108;2023-08-06T07:32:52;100713.97;;;13.62;100.00
28935;BME280;16044;52.726;-2.108;2023-08-06T07:35:23;100705.16;;;13.60;100.00
28935;BME280;16044;52.726;-2.108;2023-08-06T07:37:53;100707.22;;;13.58;100.00
28935;BME280;16044;52.726;-2.108;2023-08-06T07:40:26;100710.78;;;13.58;100.00
28935;BME280;16044;52.726;-2.108;2023-08-06T07:42:57;100719.06;;;13.65;100.00
28935;BME280;16044;52.726;-2.108;2023-08-06T07:45:27;100710.03;;;13.64;100.00
28935;BME280;16044;52.726;-2.108;2023-08-06T07:47:59;100719.88;;;13.65;100.00
28935;BME280;16044;52.726;-2.108;2023-08-06T07:50:29;100715.38;;;13.73;100.00
28935;BME280;16044;52.726;-2.108;2023-08-06T07:53:00;100722.13;;;13.77;100.00
28935;BME280;16044;52.726;-2.108;2023-08-06T07:55:33;100723.41;;;13.81;100.00
28935;BME280;16044;52.726;-2.108;2023-08-06T07:58:03;100725.25;;;13.95;100.00
28935;BME280;16044;52.726;-2.108;2023-08-06T08:00:34;100720.28;;;13.99;100.00
28935;BME280;16044;52.726;-2.108;2023-08-06T08:03:04;100723.88;;;14.06;100.00
28935;BME280;16044;52.726;-2.108;2023-08-06T08:05:35;100722.50;;;14.10;100.00
28935;BME280;16044;52.726;-2.108;2023-08-06T08:08:05;100712.88;;;14.14;100.00
28935;BME280;16044;52.726;-2.108;2023-08-06T08:10:38;100713.84;;;14.07;100.00
28935;BME280;16044;52.726;-2.108;2023-08-06T08:13:09;100719.75;;;14.10;100.00
28935;BME280;16044;52.726;-2.108;2023-08-06T08:15:39;100723.78;;;14.14;100.00
28935;BME280;16044;52.726;-2.108;2023-08-06T08:18:10;100722.03;;;14.07;100.00
28935;BME280;16044;52.726;-2.108;2023-08-06T08:20:40;100727.22;;;14.01;100.00
28935;BME280;16044;52.726;-2.108;2023-08-06T08:23:10;100735.19;;;14.03;100.00
28935;BME280;16044;52.726;-2.108;2023-08-06T08:25:43;100726.09;;;13.96;100.00
28935;BME280;16044;52.726;-2.108;2023-08-06T08:28:13;100730.25;;;13.92;100.00
28935;BME280;16044;52.726;-2.108;2023-08-06T08:30:44;100731.97;;;13.78;100.00
28935;BME280;16044;52.726;-2.108;2023-08-06T08:33:14;100735.56;;;13.78;100.00
28935;BME280;16044;52.726;-2.108;2023-08-06T08:35:45;100741.38;;;13.75;100.00
28935;BME280;16044;52.726;-2.108;2023-08-06T08:38:16;100730.47;;;13.75;100.00
28935;BME280;16044;52.726;-2.108;2023-08-06T08:40:51;100730.47;;;13.75;100.00
28935;BME280;16044;52.726;-2.108;2023-08-06T08:43:23;100736.22;;;13.80;100.00
28935;BME280;16044;52.726;-2.108;2023-08-06T08:45:54;100737.88;;;13.81;100.00
28935;BME280;16044;52.726;-2.108;2023-08-06T08:48:26;100730.34;;;13.83;100.00
28935;BME280;16044;52.726;-2.108;2023-08-06T08:50:57;100734.41;;;13.88;100.00
28935;BME280;16044;52.726;-2.108;2023-08-06T08:53:28;100737.38;;;13.93;100.00
28935;BME280;16044;52.726;-2.108;2023-08-06T08:56:01;100736.88;;;14.04;100.00
28935;BME280;16044;52.726;-2.108;2023-08-06T08:58:32;100747.34;;;14.22;100.00
28935;BME280;16044;52.726;-2.108;2023-08-06T09:01:03;100736.50;;;14.50;100.00
28935;BME280;16044;52.726;-2.108;2023-08-06T09:03:34;100741.69;;;14.67;100.00
28935;BME280;16044;52.726;-2.108;2023-08-06T09:06:06;100747.00;;;14.75;100.00
28935;BME280;16044;52.726;-2.108;2023-08-06T09:08:44;100747.09;;;14.88;100.00
28935;BME280;16044;52.726;-2.108;2023-08-06T09:11:20;100742.47;;;14.89;100.00
28935;BME280;16044;52.726;-2.108;2023-08-06T09:13:51;100752.16;;;14.91;100.00
28935;BME280;16044;52.726;-2.108;2023-08-06T09:16:23;100747.09;;;14.88;100.00
28935;BME280;16044;52.726;-2.108;2023-08-06T09:18:54;100741.22;;;14.91;100.00
28935;BME280;16044;52.726;-2.108;2023-08-06T09:21:24;100741.09;;;14.99;100.00
28935;BME280;16044;52.726;-2.108;2023-08-06T09:23:55;100754.78;;;15.06;100.00
28935;BME280;16044;52.726;-2.108;2023-08-06T09:26:33;100754.66;;;15.14;99.89
28935;BME280;16044;52.726;-2.108;2023-08-06T09:29:05;100757.50;;;15.06;97.82
28935;BME280;16044;52.726;-2.108;2023-08-06T09:31:42;100754.03;;;15.19;97.61
28935;BME280;16044;52.726;-2.108;2023-08-06T09:34:15;100750.28;;;15.27;97.29
28935;BME280;16044;52.726;-2.108;2023-08-06T09:36:47;100751.38;;;15.32;97.15
28935;BME280;16044;52.726;-2.108;2023-08-06T09:39:19;100772.22;;;15.40;97.57
28935;BME280;16044;52.726;-2.108;2023-08-06T09:41:56;100763.56;;;15.36;97.80
28935;BME280;16044;52.726;-2.108;2023-08-06T09:44:27;100767.19;;;15.44;98.41
28935;BME280;16044;52.726;-2.108;2023-08-06T09:47:02;100773.56;;;15.57;98.45
28935;BME280;16044;52.726;-2.108;2023-08-06T09:49:43;100779.88;;;15.58;98.60
28935;BME280;16044;52.726;-2.108;2023-08-06T09:52:14;100782.38;;;15.53;95.92
28935;BME280;16044;52.726;-2.108;2023-08-06T09:54:46;100776.47;;;15.49;95.10
28935;BME280;16044;52.726;-2.108;2023-08-06T09:57:20;100783.41;;;15.52;95.11
28935;BME280;16044;52.726;-2.108;2023-08-06T09:59:51;100791.00;;;15.56;95.36
28935;BME280;16044;52.726;-2.108;2023-08-06T10:02:24;100801.09;;;15.56;94.84
28935;BME280;16044;52.726;-2.108;2023-08-06T10:04:57;100790.31;;;15.48;95.62
28935;BME280;16044;52.726;-2.108;2023-08-06T10:07:29;100787.44;;;15.56;95.61
28935;BME280;16044;52.726;-2.108;2023-08-06T10:10:00;100789.94;;;15.57;94.82
28935;BME280;16044;52.726;-2.108;2023-08-06T10:12:35;100785.78;;;15.62;94.33
28935;BME280;16044;52.726;-2.108;2023-08-06T10:15:10;100789.59;;;15.67;94.27
28935;BME280;16044;52.726;-2.108;2023-08-06T10:17:45;100783.25;;;15.60;92.26
28935;BME280;16044;52.726;-2.108;2023-08-06T10:20:18;100790.63;;;15.66;93.02
28935;BME280;16044;52.726;-2.108;2023-08-06T10:23:00;100792.47;;;15.52;93.08
28935;BME280;16044;52.726;-2.108;2023-08-06T10:25:31;100800.09;;;15.64;93.61
28935;BME280;16044;52.726;-2.108;2023-08-06T10:28:10;100792.53;;;15.66;94.44
28935;BME280;16044;52.726;-2.108;2023-08-06T10:30:43;100798.63;;;15.68;94.43
28935;BME280;16044;52.726;-2.108;2023-08-06T10:33:14;100800.31;;;15.69;92.69
28935;BME280;16044;52.726;-2.108;2023-08-06T10:35:46;100805.78;;;15.69;93.95
28935;BME280;16044;52.726;-2.108;2023-08-06T10:38:19;100798.50;;;15.76;92.36
28935;BME280;16044;52.726;-2.108;2023-08-06T10:41:01;100800.63;;;15.81;91.44
28935;BME280;16044;52.726;-2.108;2023-08-06T10:43:35;100805.66;;;15.77;91.44
28935;BME280;16044;52.726;-2.108;2023-08-06T10:46:10;100803.31;;;15.74;91.60
28935;BME280;16044;52.726;-2.108;2023-08-06T10:48:42;100806.09;;;15.81;90.41
28935;BME280;16044;52.726;-2.108;2023-08-06T10:51:15;100795.16;;;15.87;90.37
28935;BME280;16044;52.726;-2.108;2023-08-06T10:53:47;100808.88;;;15.94;91.28
28935;BME280;16044;52.726;-2.108;2023-08-06T10:56:19;100802.81;;;16.05;91.77
28935;BME280;16044;52.726;-2.108;2023-08-06T10:58:55;100804.09;;;16.16;91.45
28935;BME280;16044;52.726;-2.108;2023-08-06T11:01:28;100796.31;;;16.20;90.85
28935;BME280;16044;52.726;-2.108;2023-08-06T11:04:02;100802.00;;;16.18;89.05
28935;BME280;16044;52.726;-2.108;2023-08-06T11:06:32;100802.44;;;16.15;89.27
28935;BME280;16044;52.726;-2.108;2023-08-06T11:09:03;100802.03;;;16.25;89.84
28935;BME280;16044;52.726;-2.108;2023-08-06T11:11:33;100797.81;;;16.29;90.11
28935;BME280;16044;52.726;-2.108;2023-08-06T11:14:06;100800.34;;;16.30;89.26
28935;BME280;16044;52.726;-2.108;2023-08-06T11:16:37;100792.81;;;16.39;89.79
28935;BME280;16044;52.726;-2.108;2023-08-06T11:19:07;100802.28;;;16.43;90.15
28935;BME280;16044;52.726;-2.108;2023-08-06T11:21:39;100801.47;;;16.63;91.27
28935;BME280;16044;52.726;-2.108;2023-08-06T11:24:11;100804.88;;;16.85;91.25
28935;BME280;16044;52.726;-2.108;2023-08-06T11:26:41;100792.22;;;17.10;90.29
28935;BME280;16044;52.726;-2.108;2023-08-06T11:29:15;100794.72;;;17.25;86.60
28935;BME280;16044;52.726;-2.108;2023-08-06T11:31:46;100816.66;;;17.32;83.98
28935;BME280;16044;52.726;-2.108;2023-08-06T11:34:16;100806.34;;;17.14;84.03
28935;BME280;16044;52.726;-2.108;2023-08-06T11:36:46;100805.69;;;16.79;85.66
28935;BME280;16044;52.726;-2.108;2023-08-06T11:39:17;100815.13;;;16.43;87.01
28935;BME280;16044;52.726;-2.108;2023-08-06T11:41:47;100802.59;;;16.00;89.94
28935;BME280;16044;52.726;-2.108;2023-08-06T11:44:21;100796.88;;;15.95;90.76
28935;BME280;16044;52.726;-2.108;2023-08-06T11:46:53;100789.94;;;15.92;91.39
28935;BME280;16044;52.726;-2.108;2023-08-06T11:49:43;100798.09;;;15.86;92.34
28935;BME280;16044;52.726;-2.108;2023-08-06T11:52:16;100792.63;;;15.79;93.22
28935;BME280;16044;52.726;-2.108;2023-08-06T11:55:00;100795.56;;;15.77;95.11
28935;BME280;16044;52.726;-2.108;2023-08-06T11:57:34;100790.97;;;15.91;95.84
28935;BME280;16044;52.726;-2.108;2023-08-06T12:00:12;100794.03;;;16.16;95.31
28935;BME280;16044;52.726;-2.108;2023-08-06T12:02:45;100797.22;;;16.33;94.11
28935;BME280;16044;52.726;-2.108;2023-08-06T12:05:18;100793.25;;;16.43;92.58
28935;BME280;16044;52.726;-2.108;2023-08-06T12:07:51;100807.13;;;16.48;89.24
28935;BME280;16044;52.726;-2.108;2023-08-06T12:10:24;100810.06;;;16.60;89.40
28935;BME280;16044;52.726;-2.108;2023-08-06T12:12:56;100803.34;;;16.55;87.67
28935;BME280;16044;52.726;-2.108;2023-08-06T12:15:30;100804.19;;;16.43;86.73
28935;BME280;16044;52.726;-2.108;2023-08-06T12:18:00;100797.03;;;16.42;88.48
28935;BME280;16044;52.726;-2.108;2023-08-06T12:20:31;100811.56;;;16.49;89.17
28935;BME280;16044;52.726;-2.108;2023-08-06T12:23:01;100816.41;;;16.53;87.16
28935;BME280;16044;52.726;-2.108;2023-08-06T12:25:31;100811.75;;;16.54;86.31
28935;BME280;16044;52.726;-2.108;2023-08-06T12:28:02;100812.63;;;16.54;84.78
28935;BME280;16044;52.726;-2.108;2023-08-06T12:30:36;100815.16;;;16.63;83.25
28935;BME280;16044;52.726;-2.108;2023-08-06T12:33:08;100810.94;;;16.67;84.59
28935;BME280;16044;52.726;-2.108;2023-08-06T12:35:42;100810.75;;;16.75;82.87
28935;BME280;16044;52.726;-2.108;2023-08-06T12:38:12;100808.44;;;16.72;80.63
28935;BME280;16044;52.726;-2.108;2023-08-06T12:40:43;100810.13;;;16.73;80.41
28935;BME280;16044;52.726;-2.108;2023-08-06T12:43:13;100804.25;;;16.89;80.35
28935;BME280;16044;52.726;-2.108;2023-08-06T12:45:46;100807.41;;;17.13;82.39
28935;BME280;16044;52.726;-2.108;2023-08-06T12:48:16;100815.16;;;17.36;82.02
28935;BME280;16044;52.726;-2.108;2023-08-06T12:50:46;100809.00;;;17.54;80.16
28935;BME280;16044;52.726;-2.108;2023-08-06T12:53:17;100803.72;;;17.59;78.31
28935;BME280;16044;52.726;-2.108;2023-08-06T12:55:49;100804.56;;;17.60;77.71
28935;BME280;16044;52.726;-2.108;2023-08-06T12:58:19;100801.00;;;17.52;76.91